Kashi, China
Current Conditions -  °F | °C
As of 9:00 PM on Friday 24 Oct 2014 (Local Time) from ZWSH Reporting Station
Few Clouds Few Clouds  
Wind Chill: 63°   Ceiling: Unl
Heat Index: 63°   Visibility: 6mi
Dew Point: 28°   Wind: 7mph
Humidity: 27%   Direction: 350°N
Pressure: 29.97"   Gusts: NA
Location:  39.48°N, 75.97°E
Report Text: ZWSH 241300Z 35003MPS 9999 FEW040 17/M02 Q1015 NOSIG
Loading
Personal Weather Stations






























Interactive Weather Map
Tropical Storm Tracking
New forecast layout! Learn more

10-Day Weather Forecast

Advertisements
Track Severe Weather on mobile